Time;durP1;ratioP1;P1;durP2;ratioP2;P2;SDS_P1;SDS_P2;PMS_P1;PMS_P2;Temp;Humidity;BMP_temperature;BMP_pressure;BME280_temperature;BME280_humidity;BME280_pressure;Samples;Min_cycle;Max_cycle;Signal;HPM_P1;HPM_P2
2021/04/24 00:01:58;;;;;;;3.75;2.40;;;8.80;1.00;;;;;;5109164;27;20244;-82
2021/04/24 00:04:26;;;;;;;3.55;2.40;;;8.80;1.00;;;;;;5102882;27;20236;-81
2021/04/24 00:06:53;;;;;;;7.40;3.40;;;8.80;1.00;;;;;;5101499;27;20219;-80
2021/04/24 00:09:20;;;;;;;3.15;2.63;;;8.70;1.00;;;;;;5104468;27;20227;-81
2021/04/24 00:11:47;;;;;;;5.03;2.95;;;8.60;1.00;;;;;;5113182;27;20231;-81
2021/04/24 00:14:14;;;;;;;4.50;2.67;;;8.60;1.00;;;;;;5104658;27;20311;-81
2021/04/24 00:16:40;;;;;;;4.15;2.90;;;8.60;1.00;;;;;;5092758;27;20250;-80
2021/04/24 00:19:06;;;;;;;3.88;2.30;;;8.60;1.00;;;;;;5093118;27;20223;-80
2021/04/24 00:21:33;;;;;;;3.08;2.33;;;8.60;1.00;;;;;;5093036;27;20227;-80
2021/04/24 00:24:00;;;;;;;4.00;2.50;;;8.50;1.00;;;;;;5100667;27;20216;-80
2021/04/24 00:26:29;;;;;;;4.13;2.42;;;8.60;1.00;;;;;;5097028;27;20247;-80
2021/04/24 00:28:56;;;;;;;5.40;2.65;;;8.60;1.00;;;;;;5095806;27;20247;-81
2021/04/24 00:31:22;;;;;;;3.75;2.60;;;8.60;1.00;;;;;;5100855;27;20938;-81
2021/04/24 00:33:48;;;;;;;4.45;2.35;;;8.50;1.00;;;;;;5103162;27;20215;-83
2021/04/24 00:36:17;;;;;;;3.42;2.28;;;8.50;1.00;;;;;;5124914;27;20224;-80
2021/04/24 00:38:44;;;;;;;2.83;2.28;;;8.50;1.00;;;;;;5118091;27;20216;-80
2021/04/24 00:41:11;;;;;;;6.25;2.45;;;8.40;1.00;;;;;;5121134;27;20247;-80
2021/04/24 00:43:38;;;;;;;7.68;2.80;;;8.40;1.00;;;;;;5097866;27;20239;-80
2021/04/24 00:46:09;;;;;;;3.58;2.45;;;8.40;1.00;;;;;;5113720;27;20210;-80
2021/04/24 00:48:35;;;;;;;5.07;3.03;;;8.40;1.00;;;;;;5106013;27;20211;-81
2021/04/24 00:51:02;;;;;;;3.03;2.72;;;8.30;1.00;;;;;;5109533;27;20702;-81
2021/04/24 00:53:28;;;;;;;4.90;2.85;;;8.30;1.00;;;;;;5123425;27;20248;-79
2021/04/24 00:55:55;;;;;;;3.13;2.70;;;8.30;1.00;;;;;;5108979;27;20290;-78
2021/04/24 00:58:22;;;;;;;7.40;2.75;;;8.20;1.00;;;;;;5113338;27;20223;-78
2021/04/24 01:00:52;;;;;;;5.65;3.53;;;8.20;1.00;;;;;;5110736;27;20336;-79
2021/04/24 01:03:19;;;;;;;8.55;3.88;;;8.10;1.00;;;;;;5117427;27;20228;-79
2021/04/24 01:05:46;;;;;;;4.40;3.25;;;8.10;1.00;;;;;;5108802;27;20600;-79
2021/04/24 01:08:16;;;;;;;4.70;3.13;;;8.00;1.00;;;;;;5105982;27;20211;-82
2021/04/24 01:10:45;;;;;;;5.70;3.67;;;7.90;1.00;;;;;;5104706;27;20231;-81
2021/04/24 01:13:13;;;;;;;8.27;3.40;;;7.90;1.00;;;;;;5108013;27;20279;-81
2021/04/24 01:15:41;;;;;;;6.95;4.00;;;7.80;1.00;;;;;;5100864;27;20821;-81
2021/04/24 01:18:10;;;;;;;5.43;3.33;;;7.80;1.00;;;;;;5107247;27;20231;-82
2021/04/24 01:20:42;;;;;;;6.78;3.22;;;7.70;1.00;;;;;;5126117;27;20215;-82
2021/04/24 01:23:12;;;;;;;6.90;4.00;;;7.60;1.00;;;;;;5101840;27;21659;-81
2021/04/24 01:25:41;;;;;;;5.68;3.85;;;7.60;1.00;;;;;;5116787;27;20223;-80
2021/04/24 01:28:10;;;;;;;4.85;3.70;;;7.60;1.00;;;;;;5111139;27;20231;-79
2021/04/24 01:30:39;;;;;;;5.60;4.35;;;7.50;1.00;;;;;;5131673;27;20225;-80
2021/04/24 01:33:09;;;;;;;8.82;4.70;;;7.50;1.00;;;;;;5130261;27;20223;-77
2021/04/24 01:35:37;;;;;;;8.15;3.55;;;7.50;1.00;;;;;;5130510;27;20237;-78
2021/04/24 01:38:04;;;;;;;9.13;4.13;;;7.40;1.00;;;;;;5134886;27;20219;-78
2021/04/24 01:40:31;;;;;;;7.80;4.00;;;7.40;1.00;;;;;;5115933;27;20227;-82
2021/04/24 01:42:59;;;;;;;9.88;4.40;;;7.40;1.00;;;;;;5111220;27;20222;-83
2021/04/24 01:45:26;;;;;;;7.57;4.25;;;7.40;1.00;;;;;;5111341;27;20223;-80
2021/04/24 01:47:53;;;;;;;6.70;4.93;;;7.30;1.00;;;;;;5114805;27;20211;-80
2021/04/24 01:50:24;;;;;;;10.88;4.20;;;7.20;1.00;;;;;;5115441;27;20219;-79
2021/04/24 01:52:52;;;;;;;10.65;4.80;;;7.20;1.00;;;;;;5102685;27;20712;-81
2021/04/24 01:55:21;;;;;;;7.20;4.50;;;7.20;1.00;;;;;;5118188;27;20220;-79
2021/04/24 01:57:50;;;;;;;7.43;3.95;;;7.10;1.00;;;;;;5096785;27;20222;-81
2021/04/24 02:00:23;;;;;;;5.32;4.38;;;7.10;1.00;;;;;;5104719;27;20326;-82
2021/04/24 02:02:50;;;;;;;7.13;4.25;;;7.10;1.00;;;;;;5118137;27;20263;-82
2021/04/24 02:05:17;;;;;;;8.35;4.55;;;7.00;1.00;;;;;;5115649;27;20234;-81
2021/04/24 02:07:53;;;;;;;8.15;4.85;;;7.00;1.00;;;;;;5118696;27;21159;-83
2021/04/24 02:10:20;;;;;;;7.72;5.70;;;6.90;1.00;;;;;;5120084;27;20261;-82
2021/04/24 02:12:46;;;;;;;12.40;4.60;;;6.90;1.00;;;;;;5117131;27;20276;-81
2021/04/24 02:15:14;;;;;;;9.63;5.28;;;6.90;1.00;;;;;;5121979;27;20245;-80
2021/04/24 02:17:40;;;;;;;7.00;5.25;;;6.90;1.00;;;;;;5123324;27;20281;-80
2021/04/24 02:20:08;;;;;;;11.20;6.05;;;6.80;1.00;;;;;;5118046;27;21056;-81
2021/04/24 02:22:35;;;;;;;10.27;5.10;;;6.80;1.00;;;;;;5104217;27;20257;-80
2021/04/24 02:25:03;;;;;;;7.78;4.68;;;6.80;1.00;;;;;;5119182;27;20623;-80
2021/04/24 02:27:31;;;;;;;7.53;4.55;;;6.80;1.00;;;;;;5130203;27;20225;-81
2021/04/24 02:29:57;;;;;;;10.27;6.22;;;6.70;1.00;;;;;;5136128;27;20270;-81
2021/04/24 02:32:27;;;;;;;8.48;4.82;;;6.70;1.00;;;;;;5125394;27;20237;-80
2021/04/24 02:34:54;;;;;;;9.88;4.68;;;6.70;1.00;;;;;;5133016;27;21092;-83
2021/04/24 02:37:20;;;;;;;12.65;5.65;;;6.60;1.00;;;;;;5148321;27;20199;-79
2021/04/24 02:39:49;;;;;;;9.48;5.80;;;6.60;1.00;;;;;;5146734;27;20244;-80
2021/04/24 02:42:23;;;;;;;11.05;5.47;;;6.50;1.00;;;;;;5123866;27;20253;-79
2021/04/24 02:44:50;;;;;;;11.13;5.40;;;6.50;1.00;;;;;;5118952;27;20346;-78
2021/04/24 02:47:18;;;;;;;8.27;5.18;;;6.50;1.00;;;;;;5098082;27;21364;-79
2021/04/24 02:49:46;;;;;;;8.35;4.60;;;6.50;1.00;;;;;;5099645;27;20219;-79
2021/04/24 02:52:13;;;;;;;8.98;5.65;;;6.40;1.00;;;;;;5113463;27;20219;-82
2021/04/24 02:54:40;;;;;;;8.50;4.85;;;6.40;1.00;;;;;;5098529;27;21582;-80
2021/04/24 02:57:06;;;;;;;7.45;5.05;;;6.40;1.00;;;;;;5101611;27;20220;-81
2021/04/24 02:59:33;;;;;;;9.35;5.10;;;6.30;1.00;;;;;;5125136;27;21592;-80
2021/04/24 03:02:00;;;;;;;8.63;5.63;;;6.30;1.00;;;;;;5119026;27;20218;-79
2021/04/24 03:04:27;;;;;;;9.13;5.03;;;6.20;1.00;;;;;;5119311;27;20239;-79
2021/04/24 03:06:54;;;;;;;8.25;4.78;;;6.20;1.00;;;;;;5099693;27;20223;-81
2021/04/24 03:09:20;;;;;;;8.77;5.40;;;6.20;1.00;;;;;;5118491;27;20792;-80
2021/04/24 03:11:48;;;;;;;7.07;5.60;;;6.10;1.00;;;;;;5119184;27;20219;-79
2021/04/24 03:14:14;;;;;;;9.63;5.40;;;6.10;1.00;;;;;;5104420;27;20230;-81
2021/04/24 03:16:41;;;;;;;11.48;6.20;;;6.10;1.00;;;;;;5105642;27;20230;-80
2021/04/24 03:19:08;;;;;;;7.43;5.95;;;6.10;1.00;;;;;;5124930;27;20914;-79
2021/04/24 03:21:35;;;;;;;10.68;5.50;;;6.00;1.00;;;;;;5122631;27;20222;-78
2021/04/24 03:24:04;;;;;;;7.80;5.20;;;6.00;1.00;;;;;;5122621;27;20220;-81
2021/04/24 03:26:31;;;;;;;11.90;5.75;;;6.00;1.00;;;;;;5121477;27;20222;-81
2021/04/24 03:28:58;;;;;;;15.70;5.20;;;5.90;1.00;;;;;;5126133;27;20223;-79
2021/04/24 03:31:24;;;;;;;9.23;5.25;;;5.90;1.00;;;;;;5127861;27;20232;-82
2021/04/24 03:33:50;;;;;;;8.25;4.97;;;5.80;1.00;;;;;;5131787;27;20225;-79
2021/04/24 03:36:20;;;;;;;9.63;5.20;;;5.80;1.00;;;;;;5151363;27;20210;-79
2021/04/24 03:38:49;;;;;;;14.55;4.72;;;5.80;1.00;;;;;;5153246;27;20221;-80
2021/04/24 03:41:16;;;;;;;7.25;5.07;;;5.80;1.00;;;;;;5149481;27;20211;-80
2021/04/24 03:43:43;;;;;;;8.63;5.30;;;5.80;1.00;;;;;;5146596;27;20231;-80
2021/04/24 03:46:09;;;;;;;8.20;5.18;;;5.70;1.00;;;;;;5124528;27;20237;-80
2021/04/24 03:48:36;;;;;;;10.23;5.68;;;5.70;1.00;;;;;;5144366;27;20249;-80
2021/04/24 03:51:03;;;;;;;12.50;6.35;;;5.70;1.00;;;;;;5130736;27;20223;-79
2021/04/24 03:53:29;;;;;;;7.20;5.10;;;5.70;1.00;;;;;;5151709;27;20234;-80
2021/04/24 03:55:57;;;;;;;10.90;5.60;;;5.70;1.00;;;;;;5144222;27;20206;-78
2021/04/24 03:58:25;;;;;;;10.95;5.35;;;5.70;1.00;;;;;;5145017;27;20234;-80
2021/04/24 04:00:51;;;;;;;8.93;4.97;;;5.70;1.00;;;;;;5123663;27;20300;-78
2021/04/24 04:03:18;;;;;;;8.05;5.93;;;5.70;1.00;;;;;;5142124;27;20281;-79
2021/04/24 04:05:45;;;;;;;11.48;5.85;;;5.70;1.00;;;;;;5135785;27;20199;-79
2021/04/24 04:08:16;;;;;;;8.60;5.10;;;5.70;1.00;;;;;;5120677;27;20222;-79
2021/04/24 04:10:44;;;;;;;11.55;6.00;;;5.70;1.00;;;;;;5125703;27;20232;-79
2021/04/24 04:13:14;;;;;;;10.18;5.75;;;5.70;1.00;;;;;;5145833;27;20227;-78
2021/04/24 04:15:42;;;;;;;11.30;5.30;;;5.60;1.00;;;;;;5146908;27;20250;-78
2021/04/24 04:18:14;;;;;;;12.13;5.78;;;5.70;1.00;;;;;;5140896;27;20219;-80
2021/04/24 04:20:42;;;;;;;7.47;5.53;;;5.70;1.00;;;;;;5143677;27;20307;-79
2021/04/24 04:23:09;;;;;;;10.60;5.75;;;5.60;1.00;;;;;;5140648;27;20238;-80
2021/04/24 04:25:35;;;;;;;9.20;6.03;;;5.60;1.00;;;;;;5138366;27;20220;-80
2021/04/24 04:28:02;;;;;;;9.80;6.35;;;5.60;1.00;;;;;;5133379;27;20227;-82
2021/04/24 04:30:31;;;;;;;11.00;6.30;;;5.60;1.00;;;;;;5118613;27;20223;-80
2021/04/24 04:33:01;;;;;;;10.65;5.70;;;5.60;1.00;;;;;;5127861;27;20224;-79
2021/04/24 04:35:28;;;;;;;12.68;6.47;;;5.70;1.00;;;;;;5143093;27;20207;-80
2021/04/24 04:37:55;;;;;;;10.15;5.65;;;5.70;1.00;;;;;;5125400;27;20233;-79
2021/04/24 04:40:23;;;;;;;10.98;6.10;;;5.70;1.00;;;;;;5101611;27;21034;-83
2021/04/24 04:42:50;;;;;;;8.93;5.50;;;5.70;1.00;;;;;;5118558;27;20357;-80
2021/04/24 04:45:19;;;;;;;8.98;6.25;;;5.70;1.00;;;;;;5117149;27;20215;-82
2021/04/24 04:47:46;;;;;;;12.30;6.57;;;5.70;1.00;;;;;;5105127;27;20228;-80
2021/04/24 04:50:17;;;;;;;6.75;5.63;;;5.70;1.00;;;;;;5120345;27;20320;-79
2021/04/24 04:52:45;;;;;;;11.10;6.80;;;5.70;1.00;;;;;;5118842;27;20223;-80
2021/04/24 04:55:13;;;;;;;7.82;5.95;;;5.70;1.00;;;;;;5114291;27;20230;-78
2021/04/24 04:57:39;;;;;;;10.35;6.63;;;5.70;1.00;;;;;;5112043;27;20222;-80
2021/04/24 05:00:08;;;;;;;10.38;7.65;;;5.70;1.00;;;;;;5116484;27;20346;-80
2021/04/24 05:02:35;;;;;;;12.10;6.97;;;5.70;1.00;;;;;;5115990;27;20231;-83
2021/04/24 05:05:02;;;;;;;12.45;7.22;;;5.70;1.00;;;;;;5116753;27;20225;-77
2021/04/24 05:07:29;;;;;;;12.20;7.93;;;5.80;1.00;;;;;;5114767;27;20215;-81
2021/04/24 05:09:56;;;;;;;13.18;8.20;;;5.80;1.00;;;;;;5113971;27;20306;-79
2021/04/24 05:12:23;;;;;;;15.73;7.63;;;5.80;1.00;;;;;;5113773;27;20215;-80
2021/04/24 05:14:52;;;;;;;10.32;7.53;;;5.80;1.00;;;;;;5114356;27;20227;-83
2021/04/24 05:17:18;;;;;;;19.40;8.20;;;5.80;1.00;;;;;;5111568;27;20227;-80
2021/04/24 05:19:45;;;;;;;13.20;7.75;;;5.80;1.00;;;;;;5101353;27;20234;-80
2021/04/24 05:22:11;;;;;;;15.35;8.35;;;5.80;1.00;;;;;;5120514;27;20244;-81
2021/04/24 05:24:39;;;;;;;13.02;8.60;;;5.80;1.00;;;;;;5118294;27;20229;-80
2021/04/24 05:27:06;;;;;;;19.05;9.10;;;5.90;1.00;;;;;;5109201;27;21752;-82
2021/04/24 05:29:33;;;;;;;10.95;7.43;;;5.90;1.00;;;;;;5103681;27;20230;-80
2021/04/24 05:31:59;;;;;;;14.60;8.45;;;5.90;1.00;;;;;;5123128;27;20258;-82
2021/04/24 05:34:26;;;;;;;11.38;7.78;;;5.90;1.00;;;;;;5129714;27;20226;-80
2021/04/24 05:36:56;;;;;;;14.82;8.18;;;5.90;1.00;;;;;;5153457;27;20207;-80
2021/04/24 05:39:26;;;;;;;13.00;7.90;;;6.00;1.00;;;;;;5129348;27;20230;-79
2021/04/24 05:41:53;;;;;;;10.63;7.93;;;6.10;1.00;;;;;;5125303;27;20292;-81
2021/04/24 05:44:20;;;;;;;13.82;8.80;;;6.20;1.00;;;;;;5118584;27;20236;-80
2021/04/24 05:46:50;;;;;;;16.40;9.18;;;6.20;1.00;;;;;;5118875;27;20234;-80
2021/04/24 05:49:16;;;;;;;11.68;7.82;;;6.10;1.00;;;;;;5108298;27;21265;-81
2021/04/24 05:51:43;;;;;;;14.02;9.55;;;6.20;1.00;;;;;;5129194;27;20211;-79
2021/04/24 05:54:12;;;;;;;15.10;9.02;;;6.30;1.00;;;;;;5136062;27;20227;-81
2021/04/24 05:56:38;;;;;;;13.00;8.13;;;6.40;1.00;;;;;;5116826;27;20223;-80
2021/04/24 05:59:05;;;;;;;12.48;8.18;;;6.40;1.00;;;;;;5124328;27;20219;-82
2021/04/24 06:01:32;;;;;;;15.98;8.05;;;6.50;1.00;;;;;;5122483;27;20278;-82
2021/04/24 06:03:59;;;;;;;14.05;8.93;;;6.50;1.00;;;;;;5125518;27;20238;-81
2021/04/24 06:06:25;;;;;;;14.57;9.18;;;6.60;1.00;;;;;;5130257;27;20241;-81
2021/04/24 06:08:51;;;;;;;12.98;9.00;;;6.60;1.00;;;;;;5124433;27;20278;-81
2021/04/24 06:11:18;;;;;;;11.02;8.05;;;6.70;1.00;;;;;;5127292;27;20226;-82
2021/04/24 06:13:44;;;;;;;15.55;8.70;;;6.80;1.00;;;;;;5111295;27;20245;-81
2021/04/24 06:16:17;;;;;;;13.32;8.75;;;6.90;1.00;;;;;;5126748;27;20250;-81
2021/04/24 06:18:46;;;;;;;14.90;9.48;;;7.00;1.00;;;;;;5128085;27;20297;-82
2021/04/24 06:21:13;;;;;;;15.07;9.05;;;7.10;1.00;;;;;;5136259;27;20219;-82
2021/04/24 06:23:39;;;;;;;11.40;7.78;;;7.10;1.00;;;;;;5142156;27;20225;-80
2021/04/24 06:26:06;;;;;;;14.02;9.07;;;7.00;1.00;;;;;;5115911;27;20228;-81
2021/04/24 06:28:37;;;;;;;12.93;8.77;;;7.10;1.00;;;;;;5120080;27;20238;-82
2021/04/24 06:31:07;;;;;;;15.13;8.82;;;7.20;1.00;;;;;;5128407;27;20223;-82
2021/04/24 06:33:34;;;;;;;14.07;8.80;;;7.20;1.00;;;;;;5133862;27;20218;-83
2021/04/24 06:36:00;;;;;;;14.45;8.68;;;7.30;1.00;;;;;;5149709;27;20788;-81
2021/04/24 06:38:31;;;;;;;12.63;7.43;;;7.50;1.00;;;;;;5151816;27;20207;-81
2021/04/24 06:40:58;;;;;;;16.30;9.73;;;7.60;1.00;;;;;;5131306;27;20660;-82
2021/04/24 06:43:24;;;;;;;11.43;8.13;;;7.70;1.00;;;;;;5124057;27;20218;-82
2021/04/24 06:45:50;;;;;;;12.85;8.57;;;7.80;1.00;;;;;;5115429;27;20222;-83
2021/04/24 06:48:17;;;;;;;11.70;7.57;;;7.90;1.00;;;;;;5108781;27;20230;-77
2021/04/24 06:50:44;;;;;;;10.25;7.70;;;7.90;1.00;;;;;;5122638;27;20387;-79
2021/04/24 06:53:11;;;;;;;14.93;8.43;;;7.80;1.00;;;;;;5125756;27;20223;-78
2021/04/24 06:55:37;;;;;;;11.10;8.73;;;7.80;1.00;;;;;;5100920;27;20898;-79
2021/04/24 06:58:04;;;;;;;13.32;8.05;;;7.90;1.00;;;;;;5121272;27;20227;-79
2021/04/24 07:00:31;;;;;;;10.13;7.28;;;7.90;1.00;;;;;;5139713;27;20223;-78
2021/04/24 07:02:58;;;;;;;11.50;7.88;;;8.10;1.00;;;;;;5136915;27;20296;-82
2021/04/24 07:05:25;;;;;;;12.25;8.27;;;8.20;1.00;;;;;;5131823;27;20207;-77
2021/04/24 07:07:53;;;;;;;17.25;10.18;;;8.30;1.00;;;;;;5134391;27;20219;-78
2021/04/24 07:10:19;;;;;;;12.90;8.10;;;8.50;1.00;;;;;;5142335;27;20225;-79
2021/04/24 07:12:46;;;;;;;10.73;7.40;;;8.60;1.00;;;;;;5140282;27;20226;-80
2021/04/24 07:15:14;;;;;;;12.75;7.07;;;8.70;1.00;;;;;;5142421;27;20222;-79
2021/04/24 07:17:44;;;;;;;14.70;7.50;;;8.70;1.00;;;;;;5115916;27;20230;-82
2021/04/24 07:20:11;;;;;;;10.63;6.90;;;8.80;1.00;;;;;;5115766;27;20355;-79
2021/04/24 07:22:37;;;;;;;11.13;6.75;;;8.80;1.00;;;;;;5131132;27;20227;-80
2021/04/24 07:25:06;;;;;;;10.23;6.30;;;9.00;1.00;;;;;;5133993;27;20246;-81
2021/04/24 07:27:33;;;;;;;10.32;7.38;;;9.20;1.00;;;;;;5133765;27;20267;-79
2021/04/24 07:30:00;;;;;;;14.88;8.15;;;9.60;1.00;;;;;;5137696;27;20215;-79
2021/04/24 07:32:27;;;;;;;8.93;7.97;;;9.60;1.00;;;;;;5150232;27;20192;-79
2021/04/24 07:34:57;;;;;;;10.52;6.25;;;9.50;1.00;;;;;;5144853;27;20250;-78
2021/04/24 07:37:23;;;;;;;10.45;6.43;;;9.40;1.00;;;;;;5151127;27;20204;-77
2021/04/24 07:39:50;;;;;;;10.60;6.00;;;9.40;1.00;;;;;;5151683;27;20223;-80
2021/04/24 07:42:20;;;;;;;11.02;6.75;;;9.40;1.00;;;;;;5149050;27;20269;-80
2021/04/24 07:44:46;;;;;;;8.88;5.65;;;9.50;1.00;;;;;;5148557;27;20242;-79
2021/04/24 07:47:13;;;;;;;12.70;5.28;;;9.60;1.00;;;;;;5128155;27;20223;-77
2021/04/24 07:49:40;;;;;;;6.88;4.97;;;9.70;1.00;;;;;;5137287;27;20407;-76
2021/04/24 07:52:09;;;;;;;7.85;5.13;;;9.70;1.00;;;;;;5151638;27;20196;-77
2021/04/24 07:54:44;;;;;;;8.80;5.18;;;9.90;1.00;;;;;;5153512;27;20245;-81
2021/04/24 07:57:16;;;;;;;7.43;5.72;;;10.00;1.00;;;;;;5152168;27;20206;-77
2021/04/24 07:59:44;;;;;;;7.15;5.50;;;10.20;1.00;;;;;;5146958;27;20215;-77
2021/04/24 08:02:13;;;;;;;8.33;6.07;;;10.40;1.00;;;;;;5149580;27;20285;-77
2021/04/24 08:04:40;;;;;;;14.90;13.38;;;10.70;1.00;;;;;;5145026;27;20457;-77
2021/04/24 08:07:07;;;;;;;5.68;5.10;;;10.90;1.00;;;;;;5147617;27;20277;-79
2021/04/24 08:09:34;;;;;;;10.40;5.23;;;10.90;1.00;;;;;;5142333;27;20212;-80
2021/04/24 08:12:01;;;;;;;6.70;5.15;;;11.00;1.00;;;;;;5145770;27;20433;-79
2021/04/24 08:14:29;;;;;;;8.77;5.90;;;10.80;1.00;;;;;;5129854;27;20276;-77
2021/04/24 08:16:56;;;;;;;7.90;5.35;;;10.60;1.00;;;;;;5128510;27;20274;-80
2021/04/24 08:19:24;;;;;;;8.50;4.93;;;10.60;1.00;;;;;;5146655;27;20241;-80
2021/04/24 08:21:54;;;;;;;9.45;5.97;;;10.60;1.00;;;;;;5142267;27;21601;-78
2021/04/24 08:24:20;;;;;;;9.47;6.10;;;10.80;1.00;;;;;;5140172;27;20282;-79
2021/04/24 08:26:46;;;;;;;8.27;6.32;;;11.00;1.00;;;;;;5140077;27;20417;-75
2021/04/24 08:29:13;;;;;;;8.60;6.07;;;11.20;1.00;;;;;;5143209;27;20233;-77
2021/04/24 08:31:42;;;;;;;9.60;6.38;;;11.20;1.00;;;;;;5129167;27;20418;-75
2021/04/24 08:34:13;;;;;;;10.17;5.20;;;11.30;1.00;;;;;;5151714;27;20216;-76
2021/04/24 08:36:39;;;;;;;9.05;5.47;;;11.40;1.00;;;;;;5139981;27;20472;-75
2021/04/24 08:39:07;;;;;;;9.80;5.83;;;11.40;1.00;;;;;;5126463;27;20250;-74
2021/04/24 08:41:34;;;;;;;8.17;6.07;;;11.50;1.00;;;;;;5135418;27;20416;-75
2021/04/24 08:44:00;;;;;;;7.50;5.20;;;11.60;1.00;;;;;;5132114;27;20457;-76
2021/04/24 08:46:27;;;;;;;9.80;6.13;;;11.70;1.00;;;;;;5132983;27;20566;-76
2021/04/24 08:48:55;;;;;;;8.80;5.80;;;11.70;1.00;;;;;;5133864;27;20553;-76
2021/04/24 08:51:26;;;;;;;7.80;4.93;;;11.70;1.00;;;;;;5130621;27;20477;-77
2021/04/24 08:53:53;;;;;;;8.35;5.85;;;11.70;1.00;;;;;;5121004;27;20516;-76
2021/04/24 08:56:23;;;;;;;8.20;5.17;;;11.80;1.00;;;;;;5140322;27;20235;-75
2021/04/24 08:58:52;;;;;;;7.73;5.20;;;11.90;1.00;;;;;;5121526;27;20413;-76
2021/04/24 09:01:20;;;;;;;4.70;3.67;;;12.00;1.00;;;;;;5139719;27;20436;-76
2021/04/24 09:03:47;;;;;;;8.67;4.20;;;12.20;1.00;;;;;;5136854;27;20420;-76
2021/04/24 09:06:15;;;;;;;8.60;5.03;;;12.20;1.00;;;;;;5142891;27;20501;-76
2021/04/24 09:08:53;;;;;;;10.70;5.37;;;12.40;1.00;;;;;;5120988;27;20881;-76
2021/04/24 09:11:20;;;;;;;6.20;4.77;;;12.70;1.00;;;;;;5138945;27;20421;-75
2021/04/24 09:14:00;;;;;;;5.00;4.07;;;13.00;1.00;;;;;;5132675;27;21687;-78
2021/04/24 09:16:27;;;;;;;11.87;4.40;;;13.10;1.00;;;;;;5120241;27;20418;-77
2021/04/24 09:18:58;;;;;;;4.97;4.20;;;13.30;1.00;;;;;;5124128;27;20572;-79
2021/04/24 09:21:29;;;;;;;9.00;4.40;;;13.20;1.00;;;;;;5133173;27;20440;-77
2021/04/24 09:23:57;;;;;;;7.07;4.30;;;13.30;1.00;;;;;;5115090;27;20422;-77
2021/04/24 09:26:25;;;;;;;6.00;4.07;;;13.80;1.00;;;;;;5130666;27;20504;-76
2021/04/24 09:29:00;;;;;;;9.60;4.97;;;13.70;1.00;;;;;;5116892;27;20513;-78
2021/04/24 09:31:27;;;;;;;5.53;4.07;;;14.00;1.00;;;;;;5130724;27;20408;-76
2021/04/24 09:33:57;;;;;;;4.27;3.67;;;14.80;1.00;;;;;;5117935;27;20414;-76
2021/04/24 09:36:24;;;;;;;5.47;3.43;;;15.10;1.00;;;;;;5117902;27;20475;-77
2021/04/24 09:38:53;;;;;;;5.03;2.77;;;14.90;1.00;;;;;;5121255;27;21042;-78
2021/04/24 09:41:23;;;;;;;5.00;4.20;;;14.60;1.00;;;;;;5125622;27;20527;-77
2021/04/24 09:43:56;;;;;;;4.47;3.37;;;14.50;1.00;;;;;;5115375;27;20507;-76
2021/04/24 09:46:24;;;;;;;4.23;2.87;;;14.50;1.00;;;;;;5119413;27;20520;-76
2021/04/24 09:49:06;;;;;;;3.43;3.10;;;14.00;1.00;;;;;;5124933;27;20460;-77
2021/04/24 09:51:39;;;;;;;6.07;3.53;;;13.80;1.00;;;;;;5125705;27;20544;-77
2021/04/24 09:54:07;;;;;;;7.37;3.90;;;13.60;1.00;;;;;;5120934;27;20441;-78
2021/04/24 09:56:34;;;;;;;6.10;4.10;;;13.60;1.00;;;;;;5130137;27;20449;-78
2021/04/24 09:59:05;;;;;;;5.67;3.77;;;13.80;1.00;;;;;;5128195;27;20469;-78
2021/04/24 10:01:32;;;;;;;8.37;4.40;;;13.90;1.00;;;;;;5132207;27;21156;-79
2021/04/24 10:04:00;;;;;;;5.33;3.80;;;14.20;1.00;;;;;;5122533;27;20963;-77
2021/04/24 10:06:34;;;;;;;5.40;3.23;;;14.40;1.00;;;;;;5123718;27;20513;-79
2021/04/24 10:09:24;;;;;;;4.20;3.77;;;13.90;1.00;;;;;;5131741;27;20543;-77
2021/04/24 10:12:11;;;;;;;4.43;3.63;;;13.70;1.00;;;;;;5121919;27;20453;-78
2021/04/24 10:14:40;;;;;;;6.13;3.90;;;13.60;1.00;;;;;;5122642;27;20461;-79
2021/04/24 10:17:09;;;;;;;6.03;3.83;;;13.80;1.00;;;;;;5123906;27;21179;-78
2021/04/24 10:19:36;;;;;;;5.30;4.03;;;14.10;1.00;;;;;;5129706;27;20474;-78
2021/04/24 10:22:05;;;;;;;5.77;4.87;;;13.90;1.00;;;;;;5127971;27;20457;-77
2021/04/24 10:24:32;;;;;;;10.50;5.00;;;13.40;1.00;;;;;;5128228;27;20424;-78
2021/04/24 10:27:01;;;;;;;5.70;4.00;;;13.20;1.00;;;;;;5128536;27;20437;-77
2021/04/24 10:29:27;;;;;;;6.17;4.00;;;12.70;1.00;;;;;;5112482;27;20429;-80
2021/04/24 10:31:55;;;;;;;5.73;3.87;;;12.50;1.00;;;;;;5117898;27;20449;-79
2021/04/24 10:34:25;;;;;;;6.73;4.27;;;12.50;1.00;;;;;;5120644;27;20479;-78
2021/04/24 10:36:53;;;;;;;5.00;3.73;;;12.70;1.00;;;;;;5129375;27;21298;-78
2021/04/24 10:39:22;;;;;;;7.17;4.60;;;13.20;1.00;;;;;;5121877;27;20415;-77
2021/04/24 10:41:58;;;;;;;11.17;3.80;;;15.10;1.00;;;;;;5128786;27;20454;-78
2021/04/24 10:44:45;;;;;;;4.63;3.80;;;15.40;1.00;;;;;;5116467;27;20438;-77
2021/04/24 10:47:12;;;;;;;5.20;4.30;;;15.00;1.00;;;;;;5136148;27;20410;-77
2021/04/24 10:49:53;;;;;;;4.90;3.60;;;14.80;1.00;;;;;;5123065;27;20531;-78
2021/04/24 10:52:21;;;;;;;8.17;4.37;;;14.90;1.00;;;;;;5119983;27;20430;-79
2021/04/24 10:55:22;;;;;;;8.80;4.40;;;14.70;1.00;;;;;;5111368;27;20457;-77
2021/04/24 10:57:52;;;;;;;5.27;3.67;;;14.20;1.00;;;;;;5119809;27;20583;-80
2021/04/24 11:00:23;;;;;;;5.13;3.90;;;13.80;1.00;;;;;;5125383;27;20456;-76
2021/04/24 11:02:56;;;;;;;6.07;4.17;;;13.70;1.00;;;;;;5118548;27;20529;-77
2021/04/24 11:05:26;;;;;;;6.53;5.10;;;13.90;1.00;;;;;;5121009;27;20646;-76
2021/04/24 11:08:25;;;;;;;5.67;3.50;;;14.10;1.00;;;;;;5119643;27;20459;-78
2021/04/24 11:11:01;;;;;;;6.67;3.70;;;15.20;1.00;;;;;;5120549;27;20433;-79
2021/04/24 11:13:31;;;;;;;6.10;3.93;;;17.30;1.00;;;;;;5116281;27;21197;-79
2021/04/24 11:15:59;;;;;;;5.00;3.50;;;19.20;1.00;;;;;;5115133;27;20464;-79
2021/04/24 11:18:27;;;;;;;4.57;3.37;;;20.50;1.00;;;;;;5118056;27;20436;-79
2021/04/24 11:20:55;;;;;;;5.40;3.37;;;21.30;1.00;;;;;;5115083;27;20528;-77
2021/04/24 11:23:51;;;;;;;4.23;3.10;;;22.60;1.00;;;;;;5115007;27;20521;-78
2021/04/24 11:26:49;;;;;;;6.60;3.47;;;22.90;1.00;;;;;;5115277;27;20486;-79
2021/04/24 11:29:17;;;;;;;4.13;3.20;;;21.40;1.00;;;;;;5122466;27;20487;-78
2021/04/24 11:31:59;;;;;;;3.80;3.47;;;20.10;1.00;;;;;;5138396;27;20432;-77
2021/04/24 11:34:30;;;;;;;8.60;4.50;;;19.30;1.00;;;;;;5133024;27;20412;-76
2021/04/24 11:37:26;;;;;;;8.17;4.40;;;17.90;1.00;;;;;;5112418;27;21432;-76
2021/04/24 11:40:18;;;;;;;4.63;3.70;;;17.10;1.00;;;;;;5119974;27;21378;-76
2021/04/24 11:42:54;;;;;;;6.77;3.60;;;16.40;1.00;;;;;;5113870;27;20442;-78
2021/04/24 11:46:02;;;;;;;6.10;3.90;;;15.80;1.00;;;;;;5116521;27;20453;-78
2021/04/24 11:49:01;;;;;;;9.10;4.60;;;15.10;1.00;;;;;;5113277;27;20888;-77
2021/04/24 11:51:33;;;;;;;5.97;4.53;;;14.70;1.00;;;;;;5104719;27;20422;-76
2021/04/24 11:54:02;;;;;;;5.63;4.33;;;14.30;1.00;;;;;;5126577;27;20484;-77
2021/04/24 11:56:30;;;;;;;6.67;4.13;;;14.00;1.00;;;;;;5110110;27;20442;-78
2021/04/24 11:58:57;;;;;;;4.67;3.90;;;13.90;1.00;;;;;;5125305;27;20484;-78
2021/04/24 12:01:25;;;;;;;5.67;4.20;;;14.10;1.00;;;;;;5127724;27;20460;-79
2021/04/24 12:03:52;;;;;;;7.70;4.63;;;14.20;1.00;;;;;;5125543;27;20464;-76
2021/04/24 12:06:40;;;;;;;8.00;3.97;;;14.10;1.00;;;;;;5116422;27;20449;-77
2021/04/24 12:09:11;;;;;;;8.67;5.03;;;14.00;1.00;;;;;;5118096;27;20441;-78
2021/04/24 12:11:38;;;;;;;3.93;3.40;;;14.00;1.00;;;;;;5129290;27;21659;-76
2021/04/24 12:14:05;;;;;;;4.93;3.70;;;14.10;1.00;;;;;;5128576;27;20413;-76
2021/04/24 12:16:43;;;;;;;6.33;3.37;;;14.30;1.00;;;;;;5103244;27;20507;-76
2021/04/24 12:19:33;;;;;;;9.23;3.40;;;14.80;1.00;;;;;;5116495;27;21224;-77
2021/04/24 12:22:01;;;;;;;4.50;3.70;;;16.10;1.00;;;;;;5108216;27;20435;-78
2021/04/24 12:24:28;;;;;;;4.33;3.70;;;17.00;1.00;;;;;;5133620;27;20459;-76
2021/04/24 12:26:55;;;;;;;6.27;4.13;;;17.20;1.00;;;;;;5139606;27;20400;-79
2021/04/24 12:29:44;;;;;;;6.17;3.40;;;17.70;1.00;;;;;;5143946;27;20418;-80
2021/04/24 12:32:14;;;;;;;3.83;3.50;;;19.40;1.00;;;;;;5141874;27;20993;-78
2021/04/24 12:34:44;;;;;;;5.63;4.20;;;19.80;1.00;;;;;;5144356;27;21109;-78
2021/04/24 12:37:14;;;;;;;7.30;3.77;;;19.80;1.00;;;;;;5130423;27;20410;-78
2021/04/24 12:39:41;;;;;;;4.60;3.63;;;20.50;1.00;;;;;;5148559;27;20405;-80
2021/04/24 12:42:10;;;;;;;3.90;3.30;;;21.20;1.00;;;;;;5145936;27;20411;-81
2021/04/24 12:44:43;;;;;;;4.40;3.63;;;22.30;1.00;;;;;;5148499;27;20531;-79
2021/04/24 12:47:10;;;;;;;3.77;3.47;;;23.00;1.00;;;;;;5138670;27;20751;-81
2021/04/24 12:49:43;;;;;;;4.30;3.70;;;22.90;1.00;;;;;;5145598;27;20489;-78
2021/04/24 12:52:14;;;;;;;5.13;4.60;;;23.20;1.00;;;;;;5143372;27;20404;-81
2021/04/24 12:54:40;;;;;;;4.10;3.70;;;22.20;1.00;;;;;;5142410;27;20403;-80
2021/04/24 12:57:15;;;;;;;6.00;3.77;;;20.80;1.00;;;;;;5149270;27;20424;-80
2021/04/24 12:59:42;;;;;;;4.20;3.20;;;19.60;1.00;;;;;;5145389;27;20462;-78
2021/04/24 13:02:09;;;;;;;5.13;3.80;;;18.50;1.00;;;;;;5147189;27;20428;-79
2021/04/24 13:04:36;;;;;;;6.97;3.63;;;17.80;1.00;;;;;;5144797;27;20428;-80
2021/04/24 13:07:02;;;;;;;8.53;3.83;;;17.20;1.00;;;;;;5133796;27;20440;-81
2021/04/24 13:09:34;;;;;;;5.27;2.80;;;17.40;1.00;;;;;;5128061;27;20421;-80
2021/04/24 13:12:09;;;;;;;4.77;2.97;;;19.30;1.00;;;;;;5141165;27;20446;-81